sensor_id;sensor_type;location;lat;lon;timestamp;pressure;altitude;pressure_sealevel;temperature;humidity
70916;BME280;58557;50.982;-3.222;2023-03-15T00:01:41;100851.60;;;7.59;51.14
70916;BME280;58557;50.982;-3.222;2023-03-15T00:04:06;100852.11;;;8.19;50.48
70916;BME280;58557;50.982;-3.222;2023-03-15T00:06:31;100852.71;;;8.66;48.79
70916;BME280;58557;50.982;-3.222;2023-03-15T00:08:56;100850.86;;;8.92;48.07
70916;BME280;58557;50.982;-3.222;2023-03-15T00:11:21;100849.40;;;9.18;47.20
70916;BME280;58557;50.982;-3.222;2023-03-15T00:13:47;100850.90;;;9.04;47.07
70916;BME280;58557;50.982;-3.222;2023-03-15T00:16:12;100845.70;;;9.14;47.49
70916;BME280;58557;50.982;-3.222;2023-03-15T00:18:37;100842.99;;;6.83;50.87
70916;BME280;58557;50.982;-3.222;2023-03-15T00:21:02;100853.14;;;7.77;50.34
70916;BME280;58557;50.982;-3.222;2023-03-15T00:23:27;100853.15;;;7.53;50.49
70916;BME280;58557;50.982;-3.222;2023-03-15T00:25:53;100849.63;;;7.12;51.17
70916;BME280;58557;50.982;-3.222;2023-03-15T00:28:18;100849.52;;;8.02;48.99
70916;BME280;58557;50.982;-3.222;2023-03-15T00:30:43;100852.10;;;8.17;49.70
70916;BME280;58557;50.982;-3.222;2023-03-15T00:33:09;100854.19;;;8.28;47.74
70916;BME280;58557;50.982;-3.222;2023-03-15T00:35:37;100861.66;;;8.10;49.17
70916;BME280;58557;50.982;-3.222;2023-03-15T00:37:58;100863.69;;;8.11;49.22
70916;BME280;58557;50.982;-3.222;2023-03-15T00:40:25;100867.41;;;7.28;49.43
70916;BME280;58557;50.982;-3.222;2023-03-15T00:42:50;100866.87;;;8.04;49.36
70916;BME280;58557;50.982;-3.222;2023-03-15T00:45:16;100868.18;;;7.70;49.91
70916;BME280;58557;50.982;-3.222;2023-03-15T00:47:39;100867.35;;;7.28;49.35
70916;BME280;58557;50.982;-3.222;2023-03-15T00:50:06;100872.79;;;7.83;50.63
70916;BME280;58557;50.982;-3.222;2023-03-15T00:52:34;100872.44;;;7.89;49.51
70916;BME280;58557;50.982;-3.222;2023-03-15T00:54:56;100871.46;;;8.22;48.69
70916;BME280;58557;50.982;-3.222;2023-03-15T00:57:21;100872.20;;;8.27;48.67
70916;BME280;58557;50.982;-3.222;2023-03-15T00:59:47;100873.18;;;8.33;48.28
70916;BME280;58557;50.982;-3.222;2023-03-15T01:02:12;100869.85;;;7.15;50.55
70916;BME280;58557;50.982;-3.222;2023-03-15T01:04:38;100865.19;;;7.91;50.06
70916;BME280;58557;50.982;-3.222;2023-03-15T01:07:03;100865.80;;;7.32;50.50
70916;BME280;58557;50.982;-3.222;2023-03-15T01:09:28;100867.49;;;7.63;50.94
70916;BME280;58557;50.982;-3.222;2023-03-15T01:11:54;100867.65;;;6.99;52.47
70916;BME280;58557;50.982;-3.222;2023-03-15T01:14:19;100871.45;;;7.39;53.01
70916;BME280;58557;50.982;-3.222;2023-03-15T01:16:44;100874.53;;;6.89;51.34
70916;BME280;58557;50.982;-3.222;2023-03-15T01:19:10;100876.90;;;7.43;51.25
70916;BME280;58557;50.982;-3.222;2023-03-15T01:21:35;100879.49;;;8.35;50.38
70916;BME280;58557;50.982;-3.222;2023-03-15T01:23:59;100882.65;;;8.63;48.16
70916;BME280;58557;50.982;-3.222;2023-03-15T01:26:25;100884.66;;;7.02;51.17
70916;BME280;58557;50.982;-3.222;2023-03-15T01:28:51;100887.85;;;7.60;50.78
70916;BME280;58557;50.982;-3.222;2023-03-15T01:31:18;100891.27;;;7.68;50.65
70916;BME280;58557;50.982;-3.222;2023-03-15T01:33:41;100898.24;;;8.44;50.08
70916;BME280;58557;50.982;-3.222;2023-03-15T01:36:06;100897.16;;;8.42;49.44
70916;BME280;58557;50.982;-3.222;2023-03-15T01:38:32;100896.39;;;7.42;50.58
70916;BME280;58557;50.982;-3.222;2023-03-15T01:40:57;100903.63;;;7.69;50.10
70916;BME280;58557;50.982;-3.222;2023-03-15T01:43:22;100902.57;;;5.45;54.66
70916;BME280;58557;50.982;-3.222;2023-03-15T01:45:55;100905.27;;;3.36;61.75
70916;BME280;58557;50.982;-3.222;2023-03-15T01:48:13;100903.39;;;3.54;62.22
70916;BME280;58557;50.982;-3.222;2023-03-15T01:50:37;100898.64;;;4.57;59.78
70916;BME280;58557;50.982;-3.222;2023-03-15T01:53:03;100902.58;;;5.73;58.13
70916;BME280;58557;50.982;-3.222;2023-03-15T01:55:28;100899.17;;;6.87;53.98
70916;BME280;58557;50.982;-3.222;2023-03-15T01:57:56;100904.05;;;5.96;53.58
70916;BME280;58557;50.982;-3.222;2023-03-15T02:00:19;100905.44;;;7.53;51.66
70916;BME280;58557;50.982;-3.222;2023-03-15T02:02:46;100905.06;;;6.91;51.48
70916;BME280;58557;50.982;-3.222;2023-03-15T02:05:11;100904.26;;;7.59;51.58
70916;BME280;58557;50.982;-3.222;2023-03-15T02:07:36;100904.73;;;6.90;51.82
70916;BME280;58557;50.982;-3.222;2023-03-15T02:10:04;100908.24;;;7.63;49.76
70916;BME280;58557;50.982;-3.222;2023-03-15T02:12:29;100911.21;;;6.77;51.84
70916;BME280;58557;50.982;-3.222;2023-03-15T02:14:51;100908.08;;;6.98;52.88
70916;BME280;58557;50.982;-3.222;2023-03-15T02:17:18;100908.28;;;7.13;50.86
70916;BME280;58557;50.982;-3.222;2023-03-15T02:19:48;100912.82;;;7.32;49.54
70916;BME280;58557;50.982;-3.222;2023-03-15T02:22:16;100920.64;;;7.65;48.95
70916;BME280;58557;50.982;-3.222;2023-03-15T02:24:37;100924.77;;;8.74;47.94
70916;BME280;58557;50.982;-3.222;2023-03-15T02:26:57;100924.12;;;8.24;48.81
70916;BME280;58557;50.982;-3.222;2023-03-15T02:29:24;100922.83;;;8.21;48.73
70916;BME280;58557;50.982;-3.222;2023-03-15T02:31:48;100916.41;;;7.81;48.95
70916;BME280;58557;50.982;-3.222;2023-03-15T02:34:13;100912.19;;;7.28;48.92
70916;BME280;58557;50.982;-3.222;2023-03-15T02:36:38;100911.14;;;6.64;50.39
70916;BME280;58557;50.982;-3.222;2023-03-15T02:39:13;100907.53;;;7.29;50.14
70916;BME280;58557;50.982;-3.222;2023-03-15T02:41:32;100910.24;;;5.99;52.27
70916;BME280;58557;50.982;-3.222;2023-03-15T02:44:00;100909.23;;;3.76;57.96
70916;BME280;58557;50.982;-3.222;2023-03-15T02:46:20;100897.96;;;5.39;56.11
70916;BME280;58557;50.982;-3.222;2023-03-15T02:48:46;100895.27;;;5.86;55.51
70916;BME280;58557;50.982;-3.222;2023-03-15T02:51:16;100896.50;;;6.60;52.23
70916;BME280;58557;50.982;-3.222;2023-03-15T02:53:36;100903.17;;;7.48;50.55
70916;BME280;58557;50.982;-3.222;2023-03-15T02:56:01;100906.30;;;6.36;51.95
70916;BME280;58557;50.982;-3.222;2023-03-15T02:58:26;100907.51;;;6.56;51.84
70916;BME280;58557;50.982;-3.222;2023-03-15T03:00:52;100911.42;;;6.14;52.58
70916;BME280;58557;50.982;-3.222;2023-03-15T03:03:17;100912.35;;;4.58;55.65
70916;BME280;58557;50.982;-3.222;2023-03-15T03:05:42;100911.32;;;5.01;57.37
70916;BME280;58557;50.982;-3.222;2023-03-15T03:08:07;100910.22;;;4.19;59.04
70916;BME280;58557;50.982;-3.222;2023-03-15T03:10:32;100903.17;;;5.29;56.60
70916;BME280;58557;50.982;-3.222;2023-03-15T03:12:58;100901.85;;;5.02;57.03
70916;BME280;58557;50.982;-3.222;2023-03-15T03:15:23;100899.44;;;6.37;53.40
70916;BME280;58557;50.982;-3.222;2023-03-15T03:17:48;100897.85;;;5.62;53.40
70916;BME280;58557;50.982;-3.222;2023-03-15T03:20:15;100888.23;;;7.46;51.31
70916;BME280;58557;50.982;-3.222;2023-03-15T03:22:40;100884.32;;;7.50;50.81
70916;BME280;58557;50.982;-3.222;2023-03-15T03:25:06;100886.68;;;6.93;50.03
70916;BME280;58557;50.982;-3.222;2023-03-15T03:27:31;100890.32;;;5.96;54.24
70916;BME280;58557;50.982;-3.222;2023-03-15T03:29:55;100892.77;;;7.05;51.95
70916;BME280;58557;50.982;-3.222;2023-03-15T03:32:21;100894.36;;;4.89;54.49
70916;BME280;58557;50.982;-3.222;2023-03-15T03:34:46;100896.31;;;5.68;55.62
70916;BME280;58557;50.982;-3.222;2023-03-15T03:37:11;100899.23;;;3.19;60.02
70916;BME280;58557;50.982;-3.222;2023-03-15T03:39:37;100894.20;;;5.28;55.56
70916;BME280;58557;50.982;-3.222;2023-03-15T03:42:02;100893.35;;;5.27;55.09
70916;BME280;58557;50.982;-3.222;2023-03-15T03:44:27;100889.49;;;4.99;55.30
70916;BME280;58557;50.982;-3.222;2023-03-15T03:46:52;100888.29;;;4.25;56.81
70916;BME280;58557;50.982;-3.222;2023-03-15T03:49:18;100881.41;;;5.10;56.77
70916;BME280;58557;50.982;-3.222;2023-03-15T03:51:43;100886.13;;;2.40;64.19
70916;BME280;58557;50.982;-3.222;2023-03-15T03:54:08;100890.89;;;1.46;68.95
70916;BME280;58557;50.982;-3.222;2023-03-15T03:56:33;100896.49;;;0.30;74.99
70916;BME280;58557;50.982;-3.222;2023-03-15T03:59:04;100889.89;;;2.48;69.07
70916;BME280;58557;50.982;-3.222;2023-03-15T04:01:24;100892.37;;;3.65;63.79
70916;BME280;58557;50.982;-3.222;2023-03-15T04:03:50;100894.55;;;4.13;61.06
70916;BME280;58557;50.982;-3.222;2023-03-15T04:06:15;100890.77;;;5.86;57.80
70916;BME280;58557;50.982;-3.222;2023-03-15T04:08:40;100891.26;;;6.17;56.23
70916;BME280;58557;50.982;-3.222;2023-03-15T04:11:06;100894.64;;;6.87;52.35
70916;BME280;58557;50.982;-3.222;2023-03-15T04:13:31;100896.59;;;6.98;51.74
70916;BME280;58557;50.982;-3.222;2023-03-15T04:15:57;100898.94;;;6.95;51.06
70916;BME280;58557;50.982;-3.222;2023-03-15T04:18:22;100895.76;;;5.88;51.87
70916;BME280;58557;50.982;-3.222;2023-03-15T04:20:47;100896.69;;;6.01;52.46
70916;BME280;58557;50.982;-3.222;2023-03-15T04:23:12;100896.88;;;6.58;51.07
70916;BME280;58557;50.982;-3.222;2023-03-15T04:25:38;100896.59;;;6.62;49.89
70916;BME280;58557;50.982;-3.222;2023-03-15T04:28:04;100895.26;;;6.93;48.92
70916;BME280;58557;50.982;-3.222;2023-03-15T04:30:30;100888.89;;;6.46;48.76
70916;BME280;58557;50.982;-3.222;2023-03-15T04:32:55;100886.26;;;6.51;49.81
70916;BME280;58557;50.982;-3.222;2023-03-15T04:35:19;100888.28;;;7.00;48.13
70916;BME280;58557;50.982;-3.222;2023-03-15T04:37:45;100881.08;;;6.67;48.23
70916;BME280;58557;50.982;-3.222;2023-03-15T04:40:11;100887.66;;;5.89;49.75
70916;BME280;58557;50.982;-3.222;2023-03-15T04:42:36;100888.16;;;4.58;54.40
70916;BME280;58557;50.982;-3.222;2023-03-15T04:45:01;100889.25;;;4.90;53.86
70916;BME280;58557;50.982;-3.222;2023-03-15T04:47:26;100889.84;;;6.19;51.85
70916;BME280;58557;50.982;-3.222;2023-03-15T04:49:52;100890.22;;;6.19;50.44
70916;BME280;58557;50.982;-3.222;2023-03-15T04:52:16;100892.71;;;6.84;48.91
70916;BME280;58557;50.982;-3.222;2023-03-15T04:54:42;100894.24;;;7.57;46.85
70916;BME280;58557;50.982;-3.222;2023-03-15T04:57:08;100895.55;;;6.69;49.04
70916;BME280;58557;50.982;-3.222;2023-03-15T04:59:33;100896.12;;;6.37;50.89
70916;BME280;58557;50.982;-3.222;2023-03-15T05:01:58;100899.80;;;4.35;53.07
70916;BME280;58557;50.982;-3.222;2023-03-15T05:04:23;100896.62;;;4.62;52.85
70916;BME280;58557;50.982;-3.222;2023-03-15T05:06:49;100902.45;;;4.20;56.16
70916;BME280;58557;50.982;-3.222;2023-03-15T05:09:14;100905.61;;;3.56;58.50
70916;BME280;58557;50.982;-3.222;2023-03-15T05:11:39;100909.31;;;3.02;60.88
70916;BME280;58557;50.982;-3.222;2023-03-15T05:14:04;100911.14;;;4.46;58.46
70916;BME280;58557;50.982;-3.222;2023-03-15T05:16:30;100901.38;;;5.19;54.29
70916;BME280;58557;50.982;-3.222;2023-03-15T05:18:55;100904.19;;;4.94;54.47
70916;BME280;58557;50.982;-3.222;2023-03-15T05:21:20;100909.15;;;5.04;54.26
70916;BME280;58557;50.982;-3.222;2023-03-15T05:23:46;100912.74;;;4.67;56.09
70916;BME280;58557;50.982;-3.222;2023-03-15T05:26:11;100908.29;;;4.92;54.31
70916;BME280;58557;50.982;-3.222;2023-03-15T05:28:36;100918.84;;;3.67;59.32
70916;BME280;58557;50.982;-3.222;2023-03-15T05:31:02;100915.44;;;4.05;57.31
70916;BME280;58557;50.982;-3.222;2023-03-15T05:33:27;100904.65;;;5.50;55.87
70916;BME280;58557;50.982;-3.222;2023-03-15T05:35:52;100902.83;;;5.05;54.67
70916;BME280;58557;50.982;-3.222;2023-03-15T05:38:18;100902.56;;;6.12;51.81
70916;BME280;58557;50.982;-3.222;2023-03-15T05:40:44;100904.56;;;6.36;50.34
70916;BME280;58557;50.982;-3.222;2023-03-15T05:43:09;100909.56;;;7.37;49.82
70916;BME280;58557;50.982;-3.222;2023-03-15T05:45:34;100916.46;;;7.27;49.01
70916;BME280;58557;50.982;-3.222;2023-03-15T05:48:00;100922.29;;;7.95;47.86
70916;BME280;58557;50.982;-3.222;2023-03-15T05:50:25;100920.74;;;7.99;45.71
70916;BME280;58557;50.982;-3.222;2023-03-15T05:52:50;100918.30;;;7.95;45.89
70916;BME280;58557;50.982;-3.222;2023-03-15T05:55:20;100916.54;;;7.24;47.38
70916;BME280;58557;50.982;-3.222;2023-03-15T05:57:40;100913.35;;;7.01;47.77
70916;BME280;58557;50.982;-3.222;2023-03-15T06:00:07;100911.93;;;6.91;48.37
70916;BME280;58557;50.982;-3.222;2023-03-15T06:02:32;100910.89;;;5.60;51.94
70916;BME280;58557;50.982;-3.222;2023-03-15T06:04:57;100920.96;;;1.13;64.78
70916;BME280;58557;50.982;-3.222;2023-03-15T06:07:22;100919.58;;;0.67;69.66
70916;BME280;58557;50.982;-3.222;2023-03-15T06:09:47;100923.53;;;2.98;64.09
70916;BME280;58557;50.982;-3.222;2023-03-15T06:12:13;100935.08;;;4.27;58.99
70916;BME280;58557;50.982;-3.222;2023-03-15T06:14:38;100931.32;;;5.88;55.51
70916;BME280;58557;50.982;-3.222;2023-03-15T06:17:04;100927.49;;;6.26;52.56
70916;BME280;58557;50.982;-3.222;2023-03-15T06:19:29;100930.38;;;6.28;52.40
70916;BME280;58557;50.982;-3.222;2023-03-15T06:21:55;100924.65;;;6.15;51.31
70916;BME280;58557;50.982;-3.222;2023-03-15T06:24:20;100922.50;;;7.74;50.36
70916;BME280;58557;50.982;-3.222;2023-03-15T06:26:46;100928.43;;;6.56;51.23
70916;BME280;58557;50.982;-3.222;2023-03-15T06:29:11;100928.42;;;6.80;51.12
70916;BME280;58557;50.982;-3.222;2023-03-15T06:31:37;100931.63;;;7.29;50.54
70916;BME280;58557;50.982;-3.222;2023-03-15T06:34:03;100938.09;;;7.85;49.30
70916;BME280;58557;50.982;-3.222;2023-03-15T06:36:30;100937.54;;;7.79;47.55
70916;BME280;58557;50.982;-3.222;2023-03-15T06:38:54;100939.29;;;8.25;47.07
70916;BME280;58557;50.982;-3.222;2023-03-15T06:41:19;100937.64;;;7.37;48.61
70916;BME280;58557;50.982;-3.222;2023-03-15T06:43:50;100941.28;;;7.27;48.81
70916;BME280;58557;50.982;-3.222;2023-03-15T06:46:11;100943.80;;;5.76;50.54
70916;BME280;58557;50.982;-3.222;2023-03-15T06:48:37;100944.17;;;6.35;50.49
70916;BME280;58557;50.982;-3.222;2023-03-15T06:51:02;100943.32;;;6.88;51.20
70916;BME280;58557;50.982;-3.222;2023-03-15T06:53:28;100941.80;;;7.52;49.75
70916;BME280;58557;50.982;-3.222;2023-03-15T06:55:53;100947.68;;;7.61;48.71
70916;BME280;58557;50.982;-3.222;2023-03-15T06:58:19;100947.59;;;7.84;49.03
70916;BME280;58557;50.982;-3.222;2023-03-15T07:00:45;100944.24;;;7.77;49.08
70916;BME280;58557;50.982;-3.222;2023-03-15T07:03:10;100948.75;;;8.40;48.69
70916;BME280;58557;50.982;-3.222;2023-03-15T07:05:35;100954.76;;;8.37;48.80
70916;BME280;58557;50.982;-3.222;2023-03-15T07:08:01;100954.40;;;6.92;49.62
70916;BME280;58557;50.982;-3.222;2023-03-15T07:10:27;100951.03;;;7.09;51.33
70916;BME280;58557;50.982;-3.222;2023-03-15T07:12:52;100951.52;;;6.12;51.03
70916;BME280;58557;50.982;-3.222;2023-03-15T07:15:17;100948.91;;;6.66;50.77
70916;BME280;58557;50.982;-3.222;2023-03-15T07:17:42;100947.81;;;6.86;51.68
70916;BME280;58557;50.982;-3.222;2023-03-15T07:20:09;100949.78;;;8.10;48.36
70916;BME280;58557;50.982;-3.222;2023-03-15T07:22:34;100951.68;;;8.75;48.22
70916;BME280;58557;50.982;-3.222;2023-03-15T07:24:58;100951.87;;;9.30;45.67
70916;BME280;58557;50.982;-3.222;2023-03-15T07:27:25;100953.65;;;8.95;45.19
70916;BME280;58557;50.982;-3.222;2023-03-15T07:29:49;100953.93;;;8.23;46.91
70916;BME280;58557;50.982;-3.222;2023-03-15T07:32:15;100955.93;;;7.59;47.39
70916;BME280;58557;50.982;-3.222;2023-03-15T07:34:40;100955.90;;;7.94;48.95
70916;BME280;58557;50.982;-3.222;2023-03-15T07:37:05;100953.87;;;7.36;50.32
70916;BME280;58557;50.982;-3.222;2023-03-15T07:39:30;100956.35;;;6.07;52.30
70916;BME280;58557;50.982;-3.222;2023-03-15T07:41:55;100953.29;;;8.06;51.45
70916;BME280;58557;50.982;-3.222;2023-03-15T07:44:21;100958.06;;;8.74;49.84
70916;BME280;58557;50.982;-3.222;2023-03-15T07:46:46;100954.88;;;8.86;47.59
70916;BME280;58557;50.982;-3.222;2023-03-15T07:49:11;100949.21;;;6.64;50.90
70916;BME280;58557;50.982;-3.222;2023-03-15T07:51:37;100949.10;;;8.21;50.85
70916;BME280;58557;50.982;-3.222;2023-03-15T07:54:02;100946.88;;;9.03;48.21
70916;BME280;58557;50.982;-3.222;2023-03-15T07:56:28;100947.25;;;8.60;47.04
70916;BME280;58557;50.982;-3.222;2023-03-15T07:58:53;100942.70;;;9.91;45.08
70916;BME280;58557;50.982;-3.222;2023-03-15T08:01:19;100948.01;;;8.43;47.23
70916;BME280;58557;50.982;-3.222;2023-03-15T08:03:44;100942.06;;;7.89;48.43
70916;BME280;58557;50.982;-3.222;2023-03-15T08:06:10;100943.19;;;6.88;51.54
70916;BME280;58557;50.982;-3.222;2023-03-15T08:08:35;100945.99;;;6.59;52.43
70916;BME280;58557;50.982;-3.222;2023-03-15T08:11:01;100948.91;;;7.01;51.63
70916;BME280;58557;50.982;-3.222;2023-03-15T08:13:26;100951.52;;;7.04;53.31
70916;BME280;58557;50.982;-3.222;2023-03-15T08:15:51;100952.58;;;7.99;49.82
70916;BME280;58557;50.982;-3.222;2023-03-15T08:18:16;100950.39;;;8.38;49.96
70916;BME280;58557;50.982;-3.222;2023-03-15T08:20:42;100954.84;;;9.04;47.82
70916;BME280;58557;50.982;-3.222;2023-03-15T08:23:07;100952.43;;;9.17;48.97
70916;BME280;58557;50.982;-3.222;2023-03-15T08:25:33;100954.17;;;8.54;49.32
70916;BME280;58557;50.982;-3.222;2023-03-15T08:27:59;100961.29;;;8.42;51.61
70916;BME280;58557;50.982;-3.222;2023-03-15T08:30:25;100961.57;;;8.51;48.87
70916;BME280;58557;50.982;-3.222;2023-03-15T08:32:50;100963.58;;;8.72;49.69
70916;BME280;58557;50.982;-3.222;2023-03-15T08:35:17;100957.87;;;8.05;49.95
70916;BME280;58557;50.982;-3.222;2023-03-15T08:37:41;100958.37;;;8.57;50.08
70916;BME280;58557;50.982;-3.222;2023-03-15T08:40:07;100958.58;;;6.85;54.12
70916;BME280;58557;50.982;-3.222;2023-03-15T08:42:31;100958.32;;;5.74;57.14
70916;BME280;58557;50.982;-3.222;2023-03-15T08:44:57;100959.40;;;5.66;57.60
70916;BME280;58557;50.982;-3.222;2023-03-15T08:47:22;100957.81;;;5.86;59.96
70916;BME280;58557;50.982;-3.222;2023-03-15T08:49:48;100958.67;;;6.75;55.35
70916;BME280;58557;50.982;-3.222;2023-03-15T08:52:13;100952.11;;;7.75;54.85
70916;BME280;58557;50.982;-3.222;2023-03-15T08:54:39;100952.43;;;8.60;52.00
70916;BME280;58557;50.982;-3.222;2023-03-15T08:57:05;100945.48;;;7.47;54.36
70916;BME280;58557;50.982;-3.222;2023-03-15T08:59:30;100942.76;;;9.26;51.19
70916;BME280;58557;50.982;-3.222;2023-03-15T09:01:55;100938.12;;;9.80;48.07
70916;BME280;58557;50.982;-3.222;2023-03-15T09:04:20;100940.73;;;10.37;46.80
70916;BME280;58557;50.982;-3.222;2023-03-15T09:06:45;100944.76;;;8.74;49.87
70916;BME280;58557;50.982;-3.222;2023-03-15T09:09:10;100943.27;;;9.61;49.54
70916;BME280;58557;50.982;-3.222;2023-03-15T09:11:35;100944.09;;;10.26;47.09
70916;BME280;58557;50.982;-3.222;2023-03-15T09:14:01;100948.62;;;10.53;47.13
70916;BME280;58557;50.982;-3.222;2023-03-15T09:16:26;100949.66;;;10.35;47.30
70916;BME280;58557;50.982;-3.222;2023-03-15T09:18:51;100947.23;;;10.11;48.07
70916;BME280;58557;50.982;-3.222;2023-03-15T09:21:17;100948.95;;;10.27;47.16
70916;BME280;58557;50.982;-3.222;2023-03-15T09:23:42;100944.39;;;10.25;47.93
70916;BME280;58557;50.982;-3.222;2023-03-15T09:26:07;100937.79;;;10.50;47.80
70916;BME280;58557;50.982;-3.222;2023-03-15T09:28:32;100935.11;;;11.08;47.41
70916;BME280;58557;50.982;-3.222;2023-03-15T09:30:57;100937.63;;;10.17;48.54
70916;BME280;58557;50.982;-3.222;2023-03-15T09:33:23;100932.56;;;10.47;49.15
70916;BME280;58557;50.982;-3.222;2023-03-15T09:35:49;100935.65;;;8.85;53.27
70916;BME280;58557;50.982;-3.222;2023-03-15T09:38:13;100937.87;;;8.95;54.33
70916;BME280;58557;50.982;-3.222;2023-03-15T09:40:41;100933.51;;;9.30;53.25
70916;BME280;58557;50.982;-3.222;2023-03-15T09:43:17;100937.94;;;9.25;54.62
70916;BME280;58557;50.982;-3.222;2023-03-15T09:45:39;100933.78;;;9.68;52.88
70916;BME280;58557;50.982;-3.222;2023-03-15T09:48:00;100930.34;;;9.48;52.86
70916;BME280;58557;50.982;-3.222;2023-03-15T09:50:25;100930.42;;;9.57;52.82
70916;BME280;58557;50.982;-3.222;2023-03-15T09:52:49;100931.74;;;9.51;53.18
70916;BME280;58557;50.982;-3.222;2023-03-15T09:55:15;100930.34;;;9.67;52.51
70916;BME280;58557;50.982;-3.222;2023-03-15T09:57:40;100932.21;;;10.07;52.24
70916;BME280;58557;50.982;-3.222;2023-03-15T10:00:04;100931.47;;;10.48;51.27
70916;BME280;58557;50.982;-3.222;2023-03-15T10:02:29;100932.49;;;10.14;51.56
70916;BME280;58557;50.982;-3.222;2023-03-15T10:04:56;100933.84;;;9.87;54.76
70916;BME280;58557;50.982;-3.222;2023-03-15T10:07:17;100927.53;;;10.10;55.46
70916;BME280;58557;50.982;-3.222;2023-03-15T10:09:43;100930.23;;;9.70;56.43
70916;BME280;58557;50.982;-3.222;2023-03-15T10:12:11;100928.66;;;9.65;56.62
70916;BME280;58557;50.982;-3.222;2023-03-15T10:14:46;100920.18;;;9.86;56.25
70916;BME280;58557;50.982;-3.222;2023-03-15T10:17:02;100914.52;;;9.24;57.98
70916;BME280;58557;50.982;-3.222;2023-03-15T10:19:31;100910.21;;;10.85;54.88
70916;BME280;58557;50.982;-3.222;2023-03-15T10:21:54;100907.98;;;11.05;52.26
70916;BME280;58557;50.982;-3.222;2023-03-15T10:24:17;100902.35;;;10.87;52.74
70916;BME280;58557;50.982;-3.222;2023-03-15T10:26:39;100898.99;;;11.98;51.59
70916;BME280;58557;50.982;-3.222;2023-03-15T10:29:12;100894.54;;;11.52;51.43
70916;BME280;58557;50.982;-3.222;2023-03-15T10:31:35;100893.76;;;12.05;50.07
70916;BME280;58557;50.982;-3.222;2023-03-15T10:33:56;100899.01;;;10.94;50.75
70916;BME280;58557;50.982;-3.222;2023-03-15T10:36:23;100901.33;;;11.96;48.82
70916;BME280;58557;50.982;-3.222;2023-03-15T10:38:46;100894.94;;;12.31;49.53
70916;BME280;58557;50.982;-3.222;2023-03-15T10:41:17;100894.26;;;11.82;50.40
70916;BME280;58557;50.982;-3.222;2023-03-15T10:43:37;100895.13;;;11.89;50.13
70916;BME280;58557;50.982;-3.222;2023-03-15T10:46:05;100898.90;;;11.02;53.07
70916;BME280;58557;50.982;-3.222;2023-03-15T10:48:30;100896.50;;;10.77;53.08
70916;BME280;58557;50.982;-3.222;2023-03-15T10:50:54;100891.99;;;10.02;56.32
70916;BME280;58557;50.982;-3.222;2023-03-15T10:53:19;100894.17;;;9.60;56.88
70916;BME280;58557;50.982;-3.222;2023-03-15T10:55:45;100889.04;;;9.62;57.07
70916;BME280;58557;50.982;-3.222;2023-03-15T10:58:19;100888.64;;;9.63;57.28
70916;BME280;58557;50.982;-3.222;2023-03-15T11:00:36;100887.26;;;9.02;59.11
70916;BME280;58557;50.982;-3.222;2023-03-15T11:03:04;100883.32;;;9.08;59.04
70916;BME280;58557;50.982;-3.222;2023-03-15T11:05:30;100888.03;;;9.37;60.69
70916;BME280;58557;50.982;-3.222;2023-03-15T11:07:54;100880.38;;;9.57;58.22
70916;BME280;58557;50.982;-3.222;2023-03-15T11:10:21;100888.02;;;8.96;60.74
70916;BME280;58557;50.982;-3.222;2023-03-15T11:12:43;100876.15;;;9.77;58.58
70916;BME280;58557;50.982;-3.222;2023-03-15T11:15:12;100877.43;;;10.78;56.09
70916;BME280;58557;50.982;-3.222;2023-03-15T11:17:41;100873.21;;;10.02;57.08
70916;BME280;58557;50.982;-3.222;2023-03-15T11:20:01;100873.82;;;10.22;56.26
70916;BME280;58557;50.982;-3.222;2023-03-15T11:22:25;100875.69;;;9.11;57.81
70916;BME280;58557;50.982;-3.222;2023-03-15T11:24:51;100865.49;;;9.52;56.87
70916;BME280;58557;50.982;-3.222;2023-03-15T11:27:18;100868.43;;;9.86;55.91
70916;BME280;58557;50.982;-3.222;2023-03-15T11:29:46;100875.22;;;9.32;57.33
70916;BME280;58557;50.982;-3.222;2023-03-15T11:32:12;100862.92;;;9.79;55.61
70916;BME280;58557;50.982;-3.222;2023-03-15T11:34:38;100865.19;;;9.21;58.13
70916;BME280;58557;50.982;-3.222;2023-03-15T11:37:02;100857.95;;;9.69;56.32
70916;BME280;58557;50.982;-3.222;2023-03-15T11:39:31;100864.16;;;10.19;57.65
70916;BME280;58557;50.982;-3.222;2023-03-15T11:41:51;100863.26;;;8.81;60.55
70916;BME280;58557;50.982;-3.222;2023-03-15T11:44:22;100861.12;;;8.08;64.29
70916;BME280;58557;50.982;-3.222;2023-03-15T11:46:42;100857.13;;;8.61;61.98
70916;BME280;58557;50.982;-3.222;2023-03-15T11:49:12;100848.64;;;9.10;60.49
70916;BME280;58557;50.982;-3.222;2023-03-15T11:51:33;100843.13;;;8.40;62.52
70916;BME280;58557;50.982;-3.222;2023-03-15T11:54:04;100839.94;;;7.90;65.63
70916;BME280;58557;50.982;-3.222;2023-03-15T11:56:23;100833.36;;;8.86;62.02
70916;BME280;58557;50.982;-3.222;2023-03-15T11:58:59;100830.42;;;8.70;62.81
70916;BME280;58557;50.982;-3.222;2023-03-15T12:01:23;100829.50;;;9.22;60.45
70916;BME280;58557;50.982;-3.222;2023-03-15T12:03:40;100826.53;;;10.17;58.63
70916;BME280;58557;50.982;-3.222;2023-03-15T12:06:11;100823.57;;;8.95;59.69
70916;BME280;58557;50.982;-3.222;2023-03-15T12:08:43;100836.67;;;9.41;61.34
70916;BME280;58557;50.982;-3.222;2023-03-15T12:10:55;100830.64;;;8.82;63.95
70916;BME280;58557;50.982;-3.222;2023-03-15T12:13:24;100831.53;;;7.64;66.44
70916;BME280;58557;50.982;-3.222;2023-03-15T12:15:47;100830.76;;;8.72;63.66
70916;BME280;58557;50.982;-3.222;2023-03-15T12:18:19;100827.82;;;8.53;64.26
70916;BME280;58557;50.982;-3.222;2023-03-15T12:20:38;100827.05;;;8.78;62.62
70916;BME280;58557;50.982;-3.222;2023-03-15T12:23:20;100822.52;;;9.56;60.95
70916;BME280;58557;50.982;-3.222;2023-03-15T12:25:30;100825.89;;;9.37;62.37
70916;BME280;58557;50.982;-3.222;2023-03-15T12:27:54;100822.72;;;10.47;59.96
70916;BME280;58557;50.982;-3.222;2023-03-15T12:30:21;100816.07;;;10.36;58.91
70916;BME280;58557;50.982;-3.222;2023-03-15T12:32:48;100806.26;;;10.34;58.24
70916;BME280;58557;50.982;-3.222;2023-03-15T12:35:16;100805.76;;;10.15;58.30
70916;BME280;58557;50.982;-3.222;2023-03-15T12:37:42;100801.71;;;9.42;59.70